Time,TemperatureF,DewpointF,PressureIn,WindDirection,WindDirectionDegrees,WindSpeedMPH,WindSpeedGustMPH,Humidity,HourlyPrecipIn,Conditions,Clouds,dailyrainin,SoftwareType,DateUTC
2013-12-05 00:10:00,60.4,59.8,29.82,West,260,0.0,0.0,98,0.00,,,0.00,Wunderground v.1.15,2013-12-05 06:10:00,
2013-12-05 00:20:00,60.7,60.1,29.82,West,260,0.0,0.0,98,0.00,,,0.00,Wunderground v.1.15,2013-12-05 06:20:00,
2013-12-05 00:29:00,61.2,60.9,29.82,West,260,0.0,0.0,99,0.00,,,0.00,Wunderground v.1.15,2013-12-05 06:29:00,
2013-12-05 00:35:00,61.8,61.5,29.82,West,260,0.0,0.0,99,0.00,,,0.00,Wunderground v.1.15,2013-12-05 06:35:00,
2013-12-05 00:44:00,62.1,61.8,29.82,West,259,0.0,0.0,99,0.00,,,0.00,Wunderground v.1.15,2013-12-05 06:44:00,
2013-12-05 00:55:00,62.6,62.3,29.82,West,260,0.0,0.0,99,0.00,,,0.00,Wunderground v.1.15,2013-12-05 06:55:00,
2013-12-05 01:04:00,62.9,62.6,29.81,West,260,0.0,0.0,99,0.00,,,0.00,Wunderground v.1.15,2013-12-05 07:04:00,
2013-12-05 01:10:00,63.1,62.8,29.81,West,260,0.0,0.0,99,0.00,,,0.00,Wunderground v.1.15,2013-12-05 07:10:00,
2013-12-05 01:19:00,63.3,63.0,29.82,West,260,0.0,0.0,99,0.00,,,0.00,Wunderground v.1.15,2013-12-05 07:19:00,
2013-12-05 01:25:00,63.3,63.0,29.82,West,260,0.0,0.0,99,0.00,,,0.00,Wunderground v.1.15,2013-12-05 07:25:00,
2013-12-05 01:34:00,63.4,63.1,29.82,West,260,0.0,0.0,99,0.00,,,0.00,Wunderground v.1.15,2013-12-05 07:34:00,
2013-12-05 01:45:00,63.6,63.3,29.81,West,260,0.0,0.0,99,0.00,,,0.00,Wunderground v.1.15,2013-12-05 07:45:00,
2013-12-05 01:54:00,63.6,63.3,29.82,West,260,0.0,0.0,99,0.00,,,0.00,Wunderground v.1.15,2013-12-05 07:54:00,
2013-12-05 02:05:00,63.7,63.4,29.81,West,259,0.0,0.0,99,0.00,,,0.00,Wunderground v.1.15,2013-12-05 08:05:00,
2013-12-05 02:14:00,63.9,63.6,29.81,West,260,0.0,0.0,99,0.00,,,0.00,Wunderground v.1.15,2013-12-05 08:14:00,
2013-12-05 02:20:00,63.9,63.6,29.81,West,260,0.0,0.0,99,0.00,,,0.00,Wunderground v.1.15,2013-12-05 08:20:00,
2013-12-05 02:29:00,64.1,63.8,29.81,West,260,0.0,0.0,99,0.00,,,0.00,Wunderground v.1.15,2013-12-05 08:29:00,
2013-12-05 02:40:00,64.3,64.0,29.81,West,260,0.0,0.0,99,0.00,,,0.00,Wunderground v.1.15,2013-12-05 08:40:00,
2013-12-05 02:49:00,64.4,64.1,29.81,West,260,0.0,0.0,99,0.00,,,0.00,Wunderground v.1.15,2013-12-05 08:49:00,
2013-12-05 02:55:00,64.6,64.3,29.81,West,260,0.0,0.0,99,0.00,,,0.00,Wunderground v.1.15,2013-12-05 08:55:00,
2013-12-05 03:04:00,64.9,64.6,29.81,West,260,0.0,0.0,99,0.00,,,0.00,Wunderground v.1.15,2013-12-05 09:04:00,
2013-12-05 03:10:00,65.0,64.7,29.81,West,260,0.0,0.0,99,0.00,,,0.00,Wunderground v.1.15,2013-12-05 09:10:00,
2013-12-05 03:19:00,65.0,64.7,29.82,West,260,0.0,0.0,99,0.00,,,0.00,Wunderground v.1.15,2013-12-05 09:19:00,
2013-12-05 03:30:00,65.3,65.0,29.81,West,260,0.0,0.0,99,0.00,,,0.00,Wunderground v.1.15,2013-12-05 09:30:00,
2013-12-05 03:39:00,65.4,65.1,29.81,West,260,0.0,0.0,99,0.00,,,0.00,Wunderground v.1.15,2013-12-05 09:39:00,
2013-12-05 03:45:00,65.3,65.0,29.81,West,259,0.0,0.0,99,0.00,,,0.00,Wunderground v.1.15,2013-12-05 09:45:00,
2013-12-05 03:54:00,65.4,65.1,29.81,West,259,0.0,0.0,99,0.00,,,0.00,Wunderground v.1.15,2013-12-05 09:54:00,
2013-12-05 04:00:00,65.4,65.1,29.81,West,260,0.0,0.0,99,0.00,,,0.00,Wunderground v.1.15,2013-12-05 10:00:00,
2013-12-05 04:09:00,65.4,65.1,29.82,West,260,0.0,0.0,99,0.00,,,0.00,Wunderground v.1.15,2013-12-05 10:09:00,
2013-12-05 04:20:00,65.8,65.5,29.82,WSW,245,0.0,0.0,99,0.00,,,0.00,Wunderground v.1.15,2013-12-05 10:20:00,
2013-12-05 04:29:00,66.2,66.2,29.82,SW,235,0.0,0.0,100,0.00,,,0.00,Wunderground v.1.15,2013-12-05 10:29:00,
2013-12-05 04:40:00,66.2,65.9,29.82,WSW,247,0.0,0.0,99,0.00,,,0.00,Wunderground v.1.15,2013-12-05 10:40:00,
2013-12-05 04:49:00,66.3,66.0,29.81,WSW,252,0.0,0.0,99,0.00,,,0.00,Wunderground v.1.15,2013-12-05 10:49:00,
2013-12-05 04:55:00,66.2,65.9,29.82,WSW,252,0.0,0.0,99,0.00,,,0.00,Wunderground v.1.15,2013-12-05 10:55:00,
2013-12-05 05:04:00,66.1,65.8,29.82,WSW,252,0.0,0.0,99,0.00,,,0.00,Wunderground v.1.15,2013-12-05 11:04:00,
2013-12-05 05:10:00,66.2,65.9,29.83,WSW,252,0.0,0.0,99,0.00,,,0.00,Wunderground v.1.15,2013-12-05 11:10:00,
2013-12-05 05:20:00,66.3,66.0,29.85,North,351,0.0,0.0,99,0.00,,,0.00,Wunderground v.1.15,2013-12-05 11:20:00,
2013-12-05 05:30:00,66.4,66.1,29.85,NNW,345,1.0,1.0,99,0.00,,,0.00,Wunderground v.1.15,2013-12-05 11:30:00,
2013-12-05 05:39:00,66.4,66.1,29.86,ENE,70,1.0,1.0,99,0.00,,,0.00,Wunderground v.1.15,2013-12-05 11:39:00,
2013-12-05 05:45:00,66.4,66.1,29.86,North,4,0.0,1.0,99,0.00,,,0.00,Wunderground v.1.15,2013-12-05 11:45:00,
2013-12-05 05:54:00,66.5,66.2,29.87,ESE,105,0.0,1.0,99,0.00,,,0.00,Wunderground v.1.15,2013-12-05 11:54:00,
2013-12-05 06:05:00,66.4,66.1,29.87,East,87,1.0,1.0,99,0.00,,,0.00,Wunderground v.1.15,2013-12-05 12:05:00,
2013-12-05 06:14:00,66.3,66.0,29.88,East,79,1.0,1.0,99,0.00,,,0.01,Wunderground v.1.15,2013-12-05 12:14:00,
2013-12-05 06:25:00,66.1,65.8,29.89,NNE,29,1.0,2.0,99,0.00,,,0.01,Wunderground v.1.15,2013-12-05 12:25:00,
2013-12-05 06:34:00,60.8,59.4,29.90,NNW,336,4.0,4.0,95,0.00,,,0.01,Wunderground v.1.15,2013-12-05 12:34:00,
2013-12-05 06:40:00,58.9,57.5,29.91,NE,43,4.0,5.0,95,0.00,,,0.01,Wunderground v.1.15,2013-12-05 12:40:00,
2013-12-05 06:49:00,56.2,55.1,29.91,NNE,26,4.0,4.0,96,0.00,,,0.01,Wunderground v.1.15,2013-12-05 12:49:00,
2013-12-05 06:55:00,55.4,54.3,29.92,NW,315,4.0,10.0,96,0.00,,,0.01,Wunderground v.1.15,2013-12-05 12:55:00,
2013-12-05 07:04:00,54.5,53.7,29.92,NNW,338,3.0,5.0,97,0.00,,,0.01,Wunderground v.1.15,2013-12-05 13:04:00,
2013-12-05 07:15:00,52.7,51.3,29.93,NW,315,4.0,8.0,95,0.00,,,0.01,Wunderground v.1.15,2013-12-05 13:15:00,
2013-12-05 07:24:00,51.9,50.5,29.93,NE,49,3.0,4.0,95,0.00,,,0.01,Wunderground v.1.15,2013-12-05 13:24:00,
2013-12-05 07:30:00,51.6,50.2,29.93,WNW,294,3.0,3.0,95,0.00,,,0.01,Wunderground v.1.15,2013-12-05 13:30:00,
2013-12-05 07:39:00,50.7,49.0,29.94,NNE,13,2.0,4.0,94,0.00,,,0.01,Wunderground v.1.15,2013-12-05 13:39:00,
2013-12-05 07:50:00,49.8,47.9,29.95,ENE,72,2.0,2.0,93,0.00,,,0.01,Wunderground v.1.15,2013-12-05 13:50:00,
2013-12-05 07:59:00,48.9,46.1,29.96,ESE,103,4.0,4.0,90,0.00,,,0.01,Wunderground v.1.15,2013-12-05 13:59:00,
2013-12-05 08:05:00,48.6,45.8,29.97,NNE,25,4.0,4.0,90,0.00,,,0.01,Wunderground v.1.15,2013-12-05 14:05:00,
2013-12-05 08:14:00,48.3,45.2,29.98,ENE,70,3.0,8.0,89,0.00,,,0.01,Wunderground v.1.15,2013-12-05 14:14:00,
2013-12-05 08:20:00,48.1,45.0,29.98,NW,326,3.0,3.0,89,0.00,,,0.01,Wunderground v.1.15,2013-12-05 14:20:00,
2013-12-05 08:29:00,47.9,44.8,29.98,NNW,343,3.0,3.0,89,0.00,,,0.01,Wunderground v.1.15,2013-12-05 14:29:00,
2013-12-05 08:40:00,47.5,44.1,29.99,NNE,13,3.0,3.0,88,0.00,,,0.01,Wunderground v.1.15,2013-12-05 14:40:00,
2013-12-05 08:49:00,46.9,43.5,29.99,North,356,3.0,8.0,88,0.00,,,0.01,Wunderground v.1.15,2013-12-05 14:49:00,
2013-12-05 08:55:00,46.7,43.3,29.99,NNW,327,3.0,8.0,88,0.00,,,0.01,Wunderground v.1.15,2013-12-05 14:55:00,
2013-12-05 09:04:00,46.3,42.9,30.00,NNW,328,3.0,5.0,88,0.00,,,0.01,Wunderground v.1.15,2013-12-05 15:04:00,
2013-12-05 09:10:00,46.2,42.8,30.01,East,81,4.0,4.0,88,0.00,,,0.01,Wunderground v.1.15,2013-12-05 15:10:00,
2013-12-05 09:19:00,46.0,42.6,30.01,NW,312,4.0,6.0,88,0.00,,,0.01,Wunderground v.1.15,2013-12-05 15:19:00,
2013-12-05 09:30:00,45.3,41.7,30.01,North,355,4.0,5.0,87,0.00,,,0.01,Wunderground v.1.15,2013-12-05 15:30:00,
2013-12-05 09:39:00,45.0,41.4,30.02,West,276,4.0,4.0,87,0.00,,,0.01,Wunderground v.1.15,2013-12-05 15:39:00,
2013-12-05 09:45:00,44.9,41.3,30.02,NE,50,4.0,4.0,87,0.00,,,0.01,Wunderground v.1.15,2013-12-05 15:45:00,
2013-12-05 09:55:00,44.5,40.9,30.01,NW,307,4.0,9.0,87,0.00,,,0.01,Wunderground v.1.15,2013-12-05 15:55:00,
2013-12-05 10:05:00,44.7,40.8,30.00,ENE,60,4.0,5.0,86,0.00,,,0.01,Wunderground v.1.15,2013-12-05 16:05:00,
2013-12-05 10:14:00,44.7,40.5,30.01,NNE,31,4.0,4.0,85,0.00,,,0.01,Wunderground v.1.15,2013-12-05 16:14:00,
2013-12-05 10:25:00,45.0,40.8,30.01,NE,55,4.0,10.0,85,0.00,,,0.01,Wunderground v.1.15,2013-12-05 16:25:00,
2013-12-05 10:34:00,45.3,40.4,30.01,ENE,62,4.0,5.0,83,0.00,,,0.01,Wunderground v.1.15,2013-12-05 16:34:00,
2013-12-05 10:40:00,45.3,40.7,30.02,NNE,23,4.0,4.0,84,0.00,,,0.01,Wunderground v.1.15,2013-12-05 16:40:00,
2013-12-05 10:49:00,44.7,39.9,30.02,ESE,109,5.0,5.0,83,0.00,,,0.01,Wunderground v.1.15,2013-12-05 16:49:00,
2013-12-05 10:55:00,44.8,40.0,30.02,ENE,71,4.0,5.0,83,0.00,,,0.01,Wunderground v.1.15,2013-12-05 16:55:00,
2013-12-05 11:04:00,44.8,39.6,30.02,NE,48,4.0,4.0,82,0.00,,,0.01,Wunderground v.1.15,2013-12-05 17:04:00,
2013-12-05 11:15:00,44.8,39.3,30.03,NW,309,4.0,4.0,81,0.00,,,0.01,Wunderground v.1.15,2013-12-05 17:15:00,
2013-12-05 11:24:00,44.7,39.2,30.02,North,358,4.0,5.0,81,0.00,,,0.01,Wunderground v.1.15,2013-12-05 17:24:00,
2013-12-05 11:30:00,44.4,38.9,30.03,North,355,4.0,7.0,81,0.00,,,0.01,Wunderground v.1.15,2013-12-05 17:30:00,
2013-12-05 11:39:00,43.9,38.4,30.02,North,359,4.0,6.0,81,0.00,,,0.01,Wunderground v.1.15,2013-12-05 17:39:00,
2013-12-05 11:50:00,43.4,38.0,30.01,East,99,5.0,6.0,81,0.00,,,0.01,Wunderground v.1.15,2013-12-05 17:50:00,
2013-12-05 11:59:00,43.3,37.9,30.00,NE,36,4.0,4.0,81,0.00,,,0.01,Wunderground v.1.15,2013-12-05 17:59:00,
2013-12-05 12:10:00,43.5,38.1,30.00,NW,315,4.0,4.0,81,0.00,,,0.01,Wunderground v.1.15,2013-12-05 18:10:00,
2013-12-05 12:20:00,43.8,37.7,29.99,NW,314,3.0,10.0,79,0.00,,,0.01,Wunderground v.1.15,2013-12-05 18:20:00,
2013-12-05 12:29:00,43.8,38.0,29.99,NE,37,5.0,5.0,80,0.00,,,0.01,Wunderground v.1.15,2013-12-05 18:29:00,
2013-12-05 12:40:00,43.7,37.3,29.98,NNW,333,4.0,4.0,78,0.00,,,0.01,Wunderground v.1.15,2013-12-05 18:40:00,
2013-12-05 12:49:00,43.7,37.3,29.98,East,83,4.0,5.0,78,0.00,,,0.01,Wunderground v.1.15,2013-12-05 18:49:00,
2013-12-05 13:00:00,43.7,37.3,29.98,NNW,336,4.0,4.0,78,0.00,,,0.01,Wunderground v.1.15,2013-12-05 19:00:00,
2013-12-05 13:09:00,43.9,37.5,29.98,ENE,62,4.0,4.0,78,0.00,,,0.01,Wunderground v.1.15,2013-12-05 19:09:00,
2013-12-05 13:15:00,44.0,37.6,29.98,NNE,20,3.0,4.0,78,0.00,,,0.01,Wunderground v.1.15,2013-12-05 19:15:00,
2013-12-05 13:24:00,43.9,37.2,29.97,WNW,290,3.0,4.0,77,0.00,,,0.01,Wunderground v.1.15,2013-12-05 19:24:00,
2013-12-05 13:30:00,43.9,37.2,29.97,WNW,285,4.0,8.0,77,0.00,,,0.01,Wunderground v.1.15,2013-12-05 19:30:00,
2013-12-05 13:39:00,43.5,36.8,29.97,North,11,5.0,5.0,77,0.00,,,0.01,Wunderground v.1.15,2013-12-05 19:39:00,
2013-12-05 13:50:00,43.2,36.5,29.97,NNE,18,4.0,4.0,77,0.00,,,0.01,Wunderground v.1.15,2013-12-05 19:50:00,
2013-12-05 13:59:00,43.0,36.3,29.98,NW,308,4.0,4.0,77,0.00,,,0.01,Wunderground v.1.15,2013-12-05 19:59:00,
2013-12-05 14:05:00,43.0,36.0,29.98,WNW,292,4.0,5.0,76,0.00,,,0.01,Wunderground v.1.15,2013-12-05 20:05:00,
2013-12-05 14:14:00,42.6,35.6,29.98,NNE,22,5.0,8.0,76,0.00,,,0.01,Wunderground v.1.15,2013-12-05 20:14:00,
2013-12-05 14:25:00,42.2,34.8,29.99,ENE,71,5.0,6.0,75,0.00,,,0.01,Wunderground v.1.15,2013-12-05 20:25:00,
2013-12-05 14:34:00,41.8,34.5,29.98,ENE,62,5.0,8.0,75,0.00,,,0.01,Wunderground v.1.15,2013-12-05 20:34:00,
2013-12-05 14:45:00,41.6,33.9,29.99,NE,53,7.0,10.0,74,0.00,,,0.01,Wunderground v.1.15,2013-12-05 20:45:00,
2013-12-05 14:55:00,41.2,33.9,29.98,NNE,22,8.0,8.0,75,0.00,,,0.01,Wunderground v.1.15,2013-12-05 20:55:00,
2013-12-05 15:05:00,41.3,34.0,29.99,NE,36,6.0,12.0,75,0.00,,,0.01,Wunderground v.1.15,2013-12-05 21:05:00,
2013-12-05 15:14:00,41.2,33.5,29.99,NW,311,5.0,5.0,74,0.00,,,0.01,Wunderground v.1.15,2013-12-05 21:14:00,
2013-12-05 15:25:00,40.5,33.2,29.99,North,11,7.0,7.0,75,0.00,,,0.01,Wunderground v.1.15,2013-12-05 21:25:00,
2013-12-05 15:34:00,40.5,33.5,29.99,NE,56,4.0,8.0,76,0.00,,,0.01,Wunderground v.1.15,2013-12-05 21:34:00,
2013-12-05 15:40:00,40.5,33.2,29.99,NNW,335,4.0,4.0,75,0.00,,,0.01,Wunderground v.1.15,2013-12-05 21:40:00,
2013-12-05 15:49:00,40.3,33.3,29.99,NNE,12,5.0,6.0,76,0.00,,,0.01,Wunderground v.1.15,2013-12-05 21:49:00,
2013-12-05 15:55:00,40.2,32.9,29.99,NE,37,6.0,6.0,75,0.00,,,0.01,Wunderground v.1.15,2013-12-05 21:55:00,
2013-12-05 16:04:00,40.3,33.0,29.99,NE,42,5.0,10.0,75,0.00,,,0.01,Wunderground v.1.15,2013-12-05 22:04:00,
2013-12-05 16:15:00,39.9,32.6,30.00,NW,316,7.0,7.0,75,0.00,,,0.01,Wunderground v.1.15,2013-12-05 22:15:00,
2013-12-05 16:24:00,39.6,32.0,30.00,NW,308,6.0,7.0,74,0.00,,,0.01,Wunderground v.1.15,2013-12-05 22:24:00,
2013-12-05 16:30:00,39.5,32.2,30.00,NNW,333,5.0,6.0,75,0.00,,,0.01,Wunderground v.1.15,2013-12-05 22:30:00,
2013-12-05 16:39:00,39.5,32.2,30.01,NW,318,5.0,5.0,75,0.00,,,0.01,Wunderground v.1.15,2013-12-05 22:39:00,
2013-12-05 16:45:00,39.4,32.1,30.01,ENE,65,6.0,7.0,75,0.00,,,0.01,Wunderground v.1.15,2013-12-05 22:45:00,
2013-12-05 16:55:00,39.3,31.7,30.00,WNW,287,4.0,6.0,74,0.00,,,0.01,Wunderground v.1.15,2013-12-05 22:55:00,
2013-12-05 17:05:00,39.3,31.4,30.00,NNE,27,5.0,7.0,73,0.00,,,0.01,Wunderground v.1.15,2013-12-05 23:05:00,
2013-12-05 17:14:00,39.0,31.1,30.00,North,7,6.0,6.0,73,0.00,,,0.01,Wunderground v.1.15,2013-12-05 23:14:00,
2013-12-05 17:20:00,38.9,31.0,30.01,ENE,68,5.0,5.0,73,0.00,,,0.01,Wunderground v.1.15,2013-12-05 23:20:00,
2013-12-05 17:29:00,38.7,31.1,30.01,North,5,5.0,8.0,74,0.00,,,0.01,Wunderground v.1.15,2013-12-05 23:29:00,
2013-12-05 17:40:00,38.4,30.5,30.02,NW,308,5.0,5.0,73,0.00,,,0.01,Wunderground v.1.15,2013-12-05 23:40:00,
2013-12-05 17:50:00,38.2,30.3,30.02,NE,53,5.0,5.0,73,0.00,,,0.01,Wunderground v.1.15,2013-12-05 23:50:00,
2013-12-05 17:59:00,38.1,29.9,30.03,NNE,15,5.0,5.0,72,0.00,,,0.01,Wunderground v.1.15,2013-12-05 23:59:00,
2013-12-05 18:10:00,38.1,30.2,30.03,NE,46,4.0,7.0,73,0.00,,,0.01,Wunderground v.1.15,2013-12-06 00:10:00,
2013-12-05 18:19:00,38.1,30.2,30.04,West,273,4.0,4.0,73,0.00,,,0.01,Wunderground v.1.15,2013-12-06 00:19:00,
2013-12-05 18:25:00,38.0,29.8,30.04,NNE,18,4.0,6.0,72,0.00,,,0.01,Wunderground v.1.15,2013-12-06 00:25:00,
2013-12-05 18:34:00,38.0,30.1,30.04,ENE,72,4.0,4.0,73,0.00,,,0.01,Wunderground v.1.15,2013-12-06 00:34:00,
2013-12-05 18:45:00,37.8,29.6,30.04,ENE,68,5.0,5.0,72,0.00,,,0.01,Wunderground v.1.15,2013-12-06 00:45:00,
2013-12-05 18:54:00,37.6,29.4,30.04,East,98,4.0,5.0,72,0.00,,,0.01,Wunderground v.1.15,2013-12-06 00:54:00,
2013-12-05 19:00:00,37.6,29.4,30.05,NE,49,4.0,4.0,72,0.00,,,0.01,Wunderground v.1.15,2013-12-06 01:00:00,
2013-12-05 19:09:00,37.4,29.2,30.05,NNE,12,5.0,5.0,72,0.00,,,0.01,Wunderground v.1.15,2013-12-06 01:09:00,
2013-12-05 19:15:00,37.3,28.8,30.05,SE,145,5.0,5.0,71,0.00,,,0.01,Wunderground v.1.15,2013-12-06 01:15:00,
2013-12-05 19:24:00,37.0,28.8,30.05,SE,125,5.0,5.0,72,0.00,,,0.01,Wunderground v.1.15,2013-12-06 01:24:00,
2013-12-05 19:35:00,36.8,29.0,30.04,East,81,4.0,5.0,73,0.00,,,0.01,Wunderground v.1.15,2013-12-06 01:35:00,
2013-12-05 19:44:00,36.8,29.0,30.05,East,84,4.0,4.0,73,0.00,,,0.01,Wunderground v.1.15,2013-12-06 01:44:00,
2013-12-05 19:55:00,36.7,29.2,30.06,NNW,329,3.0,5.0,74,0.00,,,0.01,Wunderground v.1.15,2013-12-06 01:55:00,
2013-12-05 20:04:00,36.7,29.2,30.07,NNE,25,4.0,10.0,74,0.00,,,0.01,Wunderground v.1.15,2013-12-06 02:04:00,
2013-12-05 20:10:00,36.5,29.0,30.07,NW,325,5.0,5.0,74,0.00,,,0.01,Wunderground v.1.15,2013-12-06 02:10:00,
2013-12-05 20:19:00,36.4,28.9,30.07,NNW,341,4.0,4.0,74,0.00,,,0.01,Wunderground v.1.15,2013-12-06 02:19:00,
2013-12-05 20:30:00,36.4,28.9,30.08,NE,51,4.0,6.0,74,0.00,,,0.01,Wunderground v.1.15,2013-12-06 02:30:00,
2013-12-05 20:39:00,36.3,29.1,30.08,NNE,30,4.0,4.0,75,0.00,,,0.01,Wunderground v.1.15,2013-12-06 02:39:00,
2013-12-05 20:45:00,36.3,29.1,30.07,NE,53,4.0,7.0,75,0.00,,,0.01,Wunderground v.1.15,2013-12-06 02:45:00,
2013-12-05 20:54:00,35.9,28.7,30.07,NNW,347,5.0,7.0,75,0.00,,,0.01,Wunderground v.1.15,2013-12-06 02:54:00,
2013-12-05 21:00:00,35.7,28.9,30.06,ENE,66,5.0,5.0,76,0.00,,,0.01,Wunderground v.1.15,2013-12-06 03:00:00,
2013-12-05 21:09:00,35.7,29.2,30.07,East,86,3.0,5.0,77,0.00,,,0.01,Wunderground v.1.15,2013-12-06 03:09:00,
2013-12-05 21:20:00,35.7,29.2,30.07,West,280,4.0,4.0,77,0.00,,,0.01,Wunderground v.1.15,2013-12-06 03:20:00,
2013-12-05 21:29:00,35.6,29.4,30.08,NW,308,4.0,7.0,78,0.00,,,0.01,Wunderground v.1.15,2013-12-06 03:29:00,
2013-12-05 21:40:00,35.5,29.6,30.08,ENE,63,4.0,4.0,79,0.00,,,0.01,Wunderground v.1.15,2013-12-06 03:40:00,
2013-12-05 21:49:00,35.1,29.6,30.08,NE,44,5.0,5.0,80,0.00,,,0.01,Wunderground v.1.15,2013-12-06 03:49:00,
2013-12-05 21:55:00,35.1,29.9,30.08,ENE,68,5.0,5.0,81,0.00,,,0.01,Wunderground v.1.15,2013-12-06 03:55:00,
2013-12-05 22:04:00,34.8,29.9,30.08,NE,54,4.0,4.0,82,0.00,,,0.01,Wunderground v.1.15,2013-12-06 04:04:00,
2013-12-05 22:15:00,34.4,29.8,30.08,NNE,18,5.0,6.0,83,0.00,,,0.01,Wunderground v.1.15,2013-12-06 04:15:00,
2013-12-05 22:24:00,34.1,29.8,30.08,North,6,4.0,5.0,84,0.00,,,0.01,Wunderground v.1.15,2013-12-06 04:24:00,
2013-12-05 22:34:00,34.1,29.8,30.10,West,270,4.0,7.0,84,0.00,,,0.01,Wunderground v.1.15,2013-12-06 04:34:00,
2013-12-05 22:40:00,33.9,29.6,30.10,NW,322,5.0,6.0,84,0.00,,,0.01,Wunderground v.1.15,2013-12-06 04:40:00,
2013-12-05 22:49:00,33.8,29.8,30.09,NNW,338,5.0,5.0,85,0.00,,,0.01,Wunderground v.1.15,2013-12-06 04:49:00,
2013-12-05 23:00:00,33.7,29.7,30.10,North,354,4.0,4.0,85,0.00,,,0.01,Wunderground v.1.15,2013-12-06 05:00:00,
2013-12-05 23:05:00,33.7,29.7,30.09,NW,305,4.0,4.0,85,0.00,,,0.01,Wunderground v.1.15,2013-12-06 05:05:00,
2013-12-05 23:14:00,33.6,29.6,30.08,NNE,18,3.0,4.0,85,0.00,,,0.01,Wunderground v.1.15,2013-12-06 05:14:00,
2013-12-05 23:20:00,33.7,30.0,30.09,North,360,2.0,5.0,86,0.00,,,0.01,Wunderground v.1.15,2013-12-06 05:20:00,
2013-12-05 23:29:00,33.5,29.8,30.08,NE,47,4.0,4.0,86,0.00,,,0.01,Wunderground v.1.15,2013-12-06 05:29:00,
2013-12-05 23:35:00,33.4,29.9,30.08,WNW,288,4.0,4.0,87,0.00,,,0.01,Wunderground v.1.15,2013-12-06 05:35:00,
2013-12-05 23:40:00,33.4,29.9,30.08,ENE,75,3.0,3.0,87,0.00,,,0.01,Wunderground v.1.15,2013-12-06 05:40:00,
2013-12-05 23:44:00,33.5,30.0,30.08,NW,308,3.0,3.0,87,0.00,,,0.01,Wunderground v.1.15,2013-12-06 05:44:00,
2013-12-05 23:55:00,33.4,29.9,30.09,WNW,290,3.0,3.0,87,0.00,,,0.01,Wunderground v.1.15,2013-12-06 05:55:00,